JML100 EDDL-EFHK
Flight info
| Callsign | JML100 |
|---|---|
| Flight time | 2h 1m |
| Altitude | 39000 |
| Route | MEVEL1Z MEVEL Y850 BASUM DCT KOKOR DCT KOTAM DCT ALAMI DCT OKEVU DCT EVADI Y370 DIVAM |
| Aircraft | B737/M-SDE2E3FGHIRWXY/LB1 |
Departure
| Time | 2026-05-07 17:07 |
|---|---|
| Airport | Düsseldorf Airport (EDDL) |
Arrival
| Time | 2026-05-07 19:09 |
|---|---|
| Airport | Helsinki Vantaa Airport (EFHK) |
| Time | Latitude | Longitude | Altitude | Speed | Heading |
|---|---|---|---|---|---|
| 2026-05-07 16:44 | 51.27799 | 6.75936 | 155 ft | 0 kts | 90° |
| 2026-05-07 17:01 | 51.27799 | 6.75935 | 155 ft | 1 kts | 90° |
| 2026-05-07 17:02 | 51.27800 | 6.75897 | 155 ft | 19 kts | 90° |
| 2026-05-07 17:02 | 51.27799 | 6.75863 | 155 ft | 19 kts | 83° |
| 2026-05-07 17:02 | 51.27791 | 6.75825 | 155 ft | 18 kts | 36° |
| 2026-05-07 17:02 | 51.27780 | 6.75817 | 155 ft | 13 kts | 1° |
| 2026-05-07 17:04 | 51.27854 | 6.75819 | 155 ft | 16 kts | 1° |
| 2026-05-07 17:04 | 51.27967 | 6.75822 | 155 ft | 16 kts | 1° |
| 2026-05-07 17:04 | 51.28064 | 6.75884 | 155 ft | 15 kts | 51° |
| 2026-05-07 17:05 | 51.28127 | 6.76015 | 155 ft | 15 kts | 51° |
| 2026-05-07 17:05 | 51.28180 | 6.76093 | 155 ft | 6 kts | 352° |
| 2026-05-07 17:05 | 51.28218 | 6.76062 | 155 ft | 5 kts | 334° |
| 2026-05-07 17:05 | 51.28233 | 6.76053 | 155 ft | 0 kts | 344° |
| 2026-05-07 17:06 | 51.28237 | 6.76052 | 155 ft | 5 kts | 346° |
| 2026-05-07 17:06 | 51.28347 | 6.76054 | 155 ft | 20 kts | 15° |
| 2026-05-07 17:06 | 51.28476 | 6.76275 | 155 ft | 47 kts | 54° |
| 2026-05-07 17:07 | 51.28784 | 6.76925 | 156 ft | 101 kts | 52° |
| 2026-05-07 17:07 | 51.29299 | 6.78010 | 182 ft | 140 kts | 53° |
| 2026-05-07 17:07 | 51.29908 | 6.79309 | 566 ft | 149 kts | 54° |
| 2026-05-07 17:07 | 51.30507 | 6.80673 | 1088 ft | 149 kts | 55° |
| 2026-05-07 17:08 | 51.31065 | 6.81981 | 1764 ft | 140 kts | 54° |
| 2026-05-07 17:08 | 51.31672 | 6.83309 | 2141 ft | 158 kts | 52° |
| 2026-05-07 17:08 | 51.32403 | 6.84766 | 2456 ft | 179 kts | 49° |
| 2026-05-07 17:08 | 51.33260 | 6.86377 | 2747 ft | 201 kts | 48° |
| 2026-05-07 17:09 | 51.34169 | 6.88280 | 2989 ft | 225 kts | 51° |
| 2026-05-07 17:09 | 51.35360 | 6.89927 | 3345 ft | 236 kts | 25° |
| 2026-05-07 17:09 | 51.36927 | 6.90727 | 3961 ft | 238 kts | 13° |
| 2026-05-07 17:09 | 51.38555 | 6.91329 | 4552 ft | 243 kts | 11° |
| 2026-05-07 17:10 | 51.40228 | 6.91820 | 5174 ft | 246 kts | 9° |
| 2026-05-07 17:10 | 51.41894 | 6.92268 | 5806 ft | 249 kts | 8° |
| 2026-05-07 17:10 | 51.43641 | 6.92735 | 6470 ft | 251 kts | 8° |
| 2026-05-07 17:10 | 51.45381 | 6.93200 | 7128 ft | 254 kts | 8° |
| 2026-05-07 17:11 | 51.47129 | 6.93668 | 7810 ft | 257 kts | 8° |
| 2026-05-07 17:11 | 51.48908 | 6.94073 | 8494 ft | 259 kts | 2° |
| 2026-05-07 17:11 | 51.50715 | 6.94030 | 9168 ft | 261 kts | 353° |
| 2026-05-07 17:11 | 51.52523 | 6.93651 | 9840 ft | 263 kts | 349° |
| 2026-05-07 17:12 | 51.54332 | 6.93135 | 10503 ft | 266 kts | 347° |
| 2026-05-07 17:12 | 51.56167 | 6.92595 | 11159 ft | 269 kts | 347° |
| 2026-05-07 17:12 | 51.58009 | 6.92063 | 11802 ft | 272 kts | 348° |
| 2026-05-07 17:12 | 51.59887 | 6.91528 | 12444 ft | 274 kts | 348° |
| 2026-05-07 17:13 | 51.61778 | 6.90994 | 13078 ft | 277 kts | 348° |
| 2026-05-07 17:13 | 51.63692 | 6.90454 | 13723 ft | 281 kts | 348° |
| 2026-05-07 17:13 | 51.65626 | 6.89910 | 14376 ft | 284 kts | 348° |
| 2026-05-07 17:13 | 51.66917 | 6.89548 | 14813 ft | 286 kts | 348° |
| 2026-05-07 17:14 | 51.68891 | 6.89093 | 15467 ft | 290 kts | 356° |
| 2026-05-07 17:14 | 51.70851 | 6.89635 | 16090 ft | 297 kts | 19° |
| 2026-05-07 17:14 | 51.72634 | 6.91462 | 16720 ft | 303 kts | 42° |
| 2026-05-07 17:14 | 51.73902 | 6.94184 | 17348 ft | 307 kts | 58° |
| 2026-05-07 17:15 | 51.74979 | 6.97190 | 17957 ft | 310 kts | 58° |
| 2026-05-07 17:15 | 51.76146 | 7.00140 | 18554 ft | 314 kts | 56° |
| 2026-05-07 17:15 | 51.77393 | 7.03037 | 19150 ft | 316 kts | 54° |
| 2026-05-07 17:15 | 51.78692 | 7.05937 | 19730 ft | 319 kts | 53° |
| 2026-05-07 17:16 | 51.79994 | 7.08826 | 20297 ft | 322 kts | 53° |
| 2026-05-07 17:16 | 51.81328 | 7.11776 | 20857 ft | 324 kts | 53° |
| 2026-05-07 17:16 | 51.82644 | 7.14686 | 21389 ft | 327 kts | 53° |
| 2026-05-07 17:16 | 51.83990 | 7.17655 | 21916 ft | 329 kts | 53° |
| 2026-05-07 17:17 | 51.85359 | 7.20645 | 22423 ft | 332 kts | 51° |
| 2026-05-07 17:17 | 51.86869 | 7.23479 | 22910 ft | 334 kts | 46° |
| 2026-05-07 17:17 | 51.88484 | 7.26201 | 23387 ft | 336 kts | 44° |
| 2026-05-07 17:17 | 51.90149 | 7.28886 | 23864 ft | 339 kts | 44° |
| 2026-05-07 17:18 | 51.91786 | 7.31581 | 24307 ft | 341 kts | 45° |
| 2026-05-07 17:18 | 51.93444 | 7.34355 | 24746 ft | 344 kts | 45° |
| 2026-05-07 17:18 | 51.95102 | 7.37157 | 25176 ft | 346 kts | 45° |
| 2026-05-07 17:18 | 51.96775 | 7.39999 | 25593 ft | 348 kts | 46° |
| 2026-05-07 17:19 | 51.98448 | 7.42851 | 26003 ft | 350 kts | 46° |
| 2026-05-07 17:19 | 52.00131 | 7.45727 | 26396 ft | 353 kts | 46° |
| 2026-05-07 17:19 | 52.01823 | 7.48623 | 26779 ft | 355 kts | 46° |
| 2026-05-07 17:19 | 52.03526 | 7.51541 | 27168 ft | 356 kts | 46° |
| 2026-05-07 17:20 | 52.05241 | 7.54479 | 27519 ft | 359 kts | 46° |
| 2026-05-07 17:20 | 52.06961 | 7.57427 | 27865 ft | 361 kts | 46° |
| 2026-05-07 17:20 | 52.08691 | 7.60392 | 28203 ft | 363 kts | 46° |
| 2026-05-07 17:20 | 52.10431 | 7.63381 | 28534 ft | 365 kts | 46° |
| 2026-05-07 17:21 | 52.12221 | 7.66324 | 28853 ft | 367 kts | 45° |
| 2026-05-07 17:21 | 52.14020 | 7.69286 | 29162 ft | 368 kts | 45° |
| 2026-05-07 17:21 | 52.15814 | 7.72261 | 29461 ft | 370 kts | 45° |
| 2026-05-07 17:21 | 52.17624 | 7.75270 | 29748 ft | 372 kts | 45° |
| 2026-05-07 17:22 | 52.19427 | 7.78316 | 30020 ft | 374 kts | 46° |
| 2026-05-07 17:22 | 52.21223 | 7.81395 | 30281 ft | 376 kts | 46° |
| 2026-05-07 17:22 | 52.23030 | 7.84498 | 30534 ft | 378 kts | 46° |
| 2026-05-07 17:22 | 52.24841 | 7.87614 | 30776 ft | 380 kts | 46° |
| 2026-05-07 17:23 | 52.26665 | 7.90755 | 31023 ft | 381 kts | 46° |
| 2026-05-07 17:23 | 52.28489 | 7.93899 | 31254 ft | 382 kts | 46° |
| 2026-05-07 17:23 | 52.30307 | 7.97037 | 31458 ft | 384 kts | 46° |
| 2026-05-07 17:23 | 52.32166 | 8.00247 | 31650 ft | 386 kts | 46° |
| 2026-05-07 17:24 | 52.34030 | 8.03425 | 31850 ft | 388 kts | 45° |
| 2026-05-07 17:24 | 52.35917 | 8.06588 | 32039 ft | 390 kts | 46° |
| 2026-05-07 17:24 | 52.37801 | 8.09802 | 32219 ft | 391 kts | 46° |
| 2026-05-07 17:24 | 52.39673 | 8.13031 | 32386 ft | 393 kts | 46° |
| 2026-05-07 17:25 | 52.41556 | 8.16297 | 32559 ft | 394 kts | 46° |
| 2026-05-07 17:25 | 52.43438 | 8.19574 | 32725 ft | 396 kts | 46° |
| 2026-05-07 17:25 | 52.45328 | 8.22871 | 32887 ft | 397 kts | 46° |
| 2026-05-07 17:25 | 52.47223 | 8.26182 | 33040 ft | 398 kts | 46° |
| 2026-05-07 17:26 | 52.49118 | 8.29497 | 33192 ft | 400 kts | 46° |
| 2026-05-07 17:26 | 52.51023 | 8.32832 | 33333 ft | 401 kts | 46° |
| 2026-05-07 17:26 | 52.52918 | 8.36148 | 33468 ft | 402 kts | 46° |
| 2026-05-07 17:26 | 52.54824 | 8.39485 | 33601 ft | 403 kts | 46° |
| 2026-05-07 17:27 | 52.56755 | 8.42852 | 33754 ft | 404 kts | 46° |
| 2026-05-07 17:27 | 52.58700 | 8.46198 | 33869 ft | 405 kts | 46° |
| 2026-05-07 17:27 | 52.60637 | 8.49573 | 33986 ft | 406 kts | 46° |
| 2026-05-07 17:27 | 52.62570 | 8.52965 | 34100 ft | 407 kts | 46° |
| 2026-05-07 17:28 | 52.64505 | 8.56378 | 34210 ft | 408 kts | 47° |
| 2026-05-07 17:28 | 52.66443 | 8.59806 | 34318 ft | 409 kts | 47° |
| 2026-05-07 17:28 | 52.68381 | 8.63240 | 34420 ft | 410 kts | 47° |
| 2026-05-07 17:28 | 52.70322 | 8.66682 | 34519 ft | 411 kts | 47° |
| 2026-05-07 17:29 | 52.74224 | 8.73610 | 34696 ft | 413 kts | 47° |
| 2026-05-07 17:29 | 52.78143 | 8.80559 | 34864 ft | 415 kts | 46° |
| 2026-05-07 17:30 | 52.82248 | 8.87241 | 35026 ft | 416 kts | 44° |
| 2026-05-07 17:30 | 52.84337 | 8.90602 | 35136 ft | 416 kts | 44° |
| 2026-05-07 17:30 | 52.86404 | 8.93952 | 35235 ft | 416 kts | 44° |
| 2026-05-07 17:31 | 52.90503 | 9.00637 | 35351 ft | 418 kts | 44° |
| 2026-05-07 17:31 | 52.94673 | 9.07483 | 35491 ft | 419 kts | 44° |
| 2026-05-07 17:32 | 52.98733 | 9.14179 | 35601 ft | 420 kts | 44° |
| 2026-05-07 17:32 | 53.02933 | 9.21076 | 35682 ft | 422 kts | 44° |
| 2026-05-07 17:33 | 53.07114 | 9.27860 | 35802 ft | 423 kts | 44° |
| 2026-05-07 17:33 | 53.11307 | 9.34743 | 35919 ft | 424 kts | 44° |
| 2026-05-07 17:34 | 53.15491 | 9.41659 | 36066 ft | 423 kts | 44° |
| 2026-05-07 17:34 | 53.17572 | 9.45111 | 36284 ft | 417 kts | 44° |
| 2026-05-07 17:34 | 53.19565 | 9.48423 | 36789 ft | 406 kts | 44° |
| 2026-05-07 17:35 | 53.21562 | 9.51747 | 36890 ft | 407 kts | 44° |
| 2026-05-07 17:35 | 53.23564 | 9.55087 | 36913 ft | 409 kts | 44° |
| 2026-05-07 17:35 | 53.27567 | 9.61779 | 37103 ft | 408 kts | 45° |
| 2026-05-07 17:36 | 53.29589 | 9.65165 | 37375 ft | 403 kts | 45° |
| 2026-05-07 17:36 | 53.31554 | 9.68462 | 37438 ft | 405 kts | 45° |
| 2026-05-07 17:36 | 53.35553 | 9.75186 | 37558 ft | 406 kts | 45° |
| 2026-05-07 17:37 | 53.39543 | 9.81915 | 37695 ft | 408 kts | 45° |
| 2026-05-07 17:37 | 53.43536 | 9.88667 | 37877 ft | 407 kts | 45° |
| 2026-05-07 17:38 | 53.47539 | 9.95456 | 38074 ft | 406 kts | 45° |
| 2026-05-07 17:38 | 53.49469 | 9.98735 | 38243 ft | 403 kts | 45° |
| 2026-05-07 17:38 | 53.51363 | 10.01958 | 38411 ft | 400 kts | 45° |
| 2026-05-07 17:39 | 53.53320 | 10.05294 | 38571 ft | 398 kts | 45° |
| 2026-05-07 17:39 | 53.55271 | 10.08624 | 38586 ft | 400 kts | 45° |
| 2026-05-07 17:39 | 53.59182 | 10.15311 | 38769 ft | 399 kts | 45° |
| 2026-05-07 17:40 | 53.61124 | 10.18639 | 38874 ft | 398 kts | 45° |
| 2026-05-07 17:40 | 53.63060 | 10.21960 | 38869 ft | 399 kts | 45° |
| 2026-05-07 17:40 | 53.66962 | 10.28672 | 39054 ft | 411 kts | 45° |
| 2026-05-07 17:41 | 53.71057 | 10.35734 | 39114 ft | 426 kts | 45° |
| 2026-05-07 17:41 | 53.74904 | 10.42389 | 39119 ft | 439 kts | 45° |
| 2026-05-07 17:42 | 53.79229 | 10.49891 | 39116 ft | 453 kts | 45° |
| 2026-05-07 17:42 | 53.83681 | 10.57640 | 39112 ft | 465 kts | 45° |
| 2026-05-07 17:43 | 53.88243 | 10.65606 | 39112 ft | 476 kts | 45° |
| 2026-05-07 17:43 | 53.92891 | 10.73749 | 39105 ft | 486 kts | 45° |
| 2026-05-07 17:44 | 53.97629 | 10.82079 | 39101 ft | 492 kts | 46° |
| 2026-05-07 17:44 | 54.02371 | 10.90444 | 39089 ft | 491 kts | 46° |
| 2026-05-07 17:45 | 54.07092 | 10.98801 | 39075 ft | 490 kts | 46° |
| 2026-05-07 17:45 | 54.11813 | 11.07189 | 39079 ft | 491 kts | 46° |
| 2026-05-07 17:46 | 54.16535 | 11.15607 | 39069 ft | 492 kts | 46° |
| 2026-05-07 17:46 | 54.21255 | 11.24052 | 39048 ft | 492 kts | 46° |
| 2026-05-07 17:47 | 54.25963 | 11.32427 | 39057 ft | 492 kts | 45° |
| 2026-05-07 17:47 | 54.30685 | 11.40898 | 39056 ft | 492 kts | 46° |
| 2026-05-07 17:48 | 54.35373 | 11.49413 | 39029 ft | 490 kts | 46° |
| 2026-05-07 17:48 | 54.40047 | 11.57938 | 39033 ft | 491 kts | 46° |
| 2026-05-07 17:49 | 54.44730 | 11.66488 | 39034 ft | 492 kts | 46° |
| 2026-05-07 17:49 | 54.49455 | 11.74999 | 39041 ft | 492 kts | 45° |
| 2026-05-07 17:50 | 54.54240 | 11.83472 | 39033 ft | 494 kts | 45° |
| 2026-05-07 17:50 | 54.58958 | 11.91896 | 39035 ft | 494 kts | 46° |
| 2026-05-07 17:51 | 54.63707 | 12.00424 | 39049 ft | 489 kts | 46° |
| 2026-05-07 17:51 | 54.68421 | 12.08920 | 39062 ft | 491 kts | 46° |
| 2026-05-07 17:52 | 54.73188 | 12.17394 | 39073 ft | 491 kts | 45° |
| 2026-05-07 17:52 | 54.77947 | 12.25871 | 39081 ft | 492 kts | 45° |
| 2026-05-07 17:53 | 54.82614 | 12.34275 | 39088 ft | 492 kts | 46° |
| 2026-05-07 17:53 | 54.87331 | 12.42821 | 39102 ft | 491 kts | 46° |
| 2026-05-07 17:54 | 54.92064 | 12.51437 | 39102 ft | 489 kts | 46° |
| 2026-05-07 17:54 | 54.96761 | 12.60022 | 39114 ft | 491 kts | 46° |
| 2026-05-07 17:55 | 55.01469 | 12.68661 | 39123 ft | 491 kts | 46° |
| 2026-05-07 17:55 | 55.06173 | 12.77323 | 39133 ft | 492 kts | 46° |
| 2026-05-07 17:56 | 55.10872 | 12.86009 | 39134 ft | 493 kts | 46° |
| 2026-05-07 17:56 | 55.14756 | 12.93213 | 39129 ft | 491 kts | 46° |
| 2026-05-07 17:57 | 55.19443 | 13.01934 | 39129 ft | 489 kts | 46° |
| 2026-05-07 17:57 | 55.24783 | 13.11911 | 39128 ft | 490 kts | 46° |
| 2026-05-07 17:58 | 55.29450 | 13.20666 | 39123 ft | 491 kts | 46° |
| 2026-05-07 17:58 | 55.33360 | 13.28024 | 39119 ft | 492 kts | 46° |
| 2026-05-07 17:59 | 55.38021 | 13.36825 | 39118 ft | 492 kts | 46° |
| 2026-05-07 17:59 | 55.42650 | 13.45599 | 39115 ft | 491 kts | 47° |
| 2026-05-07 18:00 | 55.47292 | 13.54431 | 39114 ft | 490 kts | 47° |
| 2026-05-07 18:00 | 55.51906 | 13.63242 | 39116 ft | 490 kts | 47° |
| 2026-05-07 18:01 | 55.56537 | 13.72118 | 39114 ft | 492 kts | 47° |
| 2026-05-07 18:01 | 55.61176 | 13.81044 | 39112 ft | 494 kts | 47° |
| 2026-05-07 18:02 | 55.68129 | 13.94483 | 39114 ft | 494 kts | 47° |
| 2026-05-07 18:03 | 55.72705 | 14.03370 | 39113 ft | 494 kts | 47° |
| 2026-05-07 18:03 | 55.77366 | 14.12456 | 39113 ft | 489 kts | 47° |
| 2026-05-07 18:04 | 55.81942 | 14.21412 | 39112 ft | 491 kts | 47° |
| 2026-05-07 18:04 | 55.86531 | 14.30425 | 39113 ft | 491 kts | 47° |
| 2026-05-07 18:05 | 55.91107 | 14.39448 | 39113 ft | 490 kts | 47° |
| 2026-05-07 18:05 | 55.95709 | 14.48426 | 39112 ft | 491 kts | 47° |
| 2026-05-07 18:06 | 56.00239 | 14.57439 | 39113 ft | 492 kts | 48° |
| 2026-05-07 18:06 | 56.04781 | 14.66549 | 39114 ft | 489 kts | 48° |
| 2026-05-07 18:07 | 56.09296 | 14.75632 | 39111 ft | 489 kts | 48° |
| 2026-05-07 18:07 | 56.13815 | 14.84736 | 39113 ft | 489 kts | 47° |
| 2026-05-07 18:08 | 56.18537 | 14.93570 | 39105 ft | 492 kts | 45° |
| 2026-05-07 18:08 | 56.23337 | 15.02365 | 39090 ft | 495 kts | 45° |
| 2026-05-07 18:09 | 56.28132 | 15.11278 | 39089 ft | 493 kts | 46° |
| 2026-05-07 18:09 | 56.32853 | 15.20120 | 39103 ft | 486 kts | 45° |
| 2026-05-07 18:10 | 56.37527 | 15.28909 | 39105 ft | 488 kts | 45° |
| 2026-05-07 18:10 | 56.42303 | 15.37692 | 39109 ft | 489 kts | 45° |
| 2026-05-07 18:11 | 56.47029 | 15.46503 | 39111 ft | 488 kts | 45° |
| 2026-05-07 18:11 | 56.51729 | 15.55348 | 39115 ft | 488 kts | 45° |
| 2026-05-07 18:12 | 56.56424 | 15.64238 | 39119 ft | 488 kts | 45° |
| 2026-05-07 18:12 | 56.61111 | 15.73155 | 39122 ft | 486 kts | 46° |
| 2026-05-07 18:13 | 56.65741 | 15.82002 | 39126 ft | 487 kts | 46° |
| 2026-05-07 18:13 | 56.70407 | 15.90951 | 39128 ft | 488 kts | 46° |
| 2026-05-07 18:14 | 56.75063 | 15.99918 | 39137 ft | 486 kts | 46° |
| 2026-05-07 18:14 | 56.79712 | 16.08905 | 39134 ft | 488 kts | 46° |
| 2026-05-07 18:15 | 56.84365 | 16.17936 | 39128 ft | 488 kts | 46° |
| 2026-05-07 18:15 | 56.88999 | 16.26964 | 39137 ft | 485 kts | 46° |
| 2026-05-07 18:16 | 56.93604 | 16.35971 | 39137 ft | 485 kts | 46° |
| 2026-05-07 18:16 | 56.98239 | 16.45073 | 39134 ft | 487 kts | 46° |
| 2026-05-07 18:17 | 57.02843 | 16.54147 | 39131 ft | 488 kts | 46° |
| 2026-05-07 18:17 | 57.07472 | 16.63307 | 39131 ft | 490 kts | 46° |
| 2026-05-07 18:18 | 57.12095 | 16.72493 | 39135 ft | 489 kts | 46° |
| 2026-05-07 18:18 | 57.16728 | 16.81734 | 39129 ft | 491 kts | 47° |
| 2026-05-07 18:19 | 57.21338 | 16.90965 | 39129 ft | 488 kts | 47° |
| 2026-05-07 18:19 | 57.25935 | 17.00209 | 39132 ft | 490 kts | 47° |
| 2026-05-07 18:20 | 57.30547 | 17.09519 | 39131 ft | 491 kts | 47° |
| 2026-05-07 18:20 | 57.35161 | 17.18870 | 39131 ft | 492 kts | 47° |
| 2026-05-07 18:21 | 57.39765 | 17.28238 | 39132 ft | 492 kts | 47° |
| 2026-05-07 18:21 | 57.44374 | 17.37654 | 39136 ft | 493 kts | 47° |
| 2026-05-07 18:22 | 57.48960 | 17.47062 | 39135 ft | 490 kts | 47° |
| 2026-05-07 18:22 | 57.53538 | 17.56491 | 39135 ft | 491 kts | 47° |
| 2026-05-07 18:23 | 57.58124 | 17.65974 | 39138 ft | 493 kts | 47° |
| 2026-05-07 18:23 | 57.62716 | 17.75509 | 39138 ft | 494 kts | 47° |
| 2026-05-07 18:24 | 57.67296 | 17.85059 | 39140 ft | 493 kts | 47° |
| 2026-05-07 18:24 | 57.71865 | 17.94624 | 39140 ft | 493 kts | 47° |
| 2026-05-07 18:25 | 57.76427 | 18.04213 | 39141 ft | 493 kts | 47° |
| 2026-05-07 18:25 | 57.80978 | 18.13820 | 39141 ft | 493 kts | 47° |
| 2026-05-07 18:26 | 57.85529 | 18.23465 | 39141 ft | 494 kts | 48° |
| 2026-05-07 18:26 | 57.90080 | 18.33151 | 39141 ft | 494 kts | 48° |
| 2026-05-07 18:27 | 57.94626 | 18.42867 | 39142 ft | 495 kts | 48° |
| 2026-05-07 18:27 | 57.99166 | 18.52610 | 39141 ft | 495 kts | 48° |
| 2026-05-07 18:28 | 58.03691 | 18.62362 | 39141 ft | 494 kts | 48° |
| 2026-05-07 18:28 | 58.08217 | 18.72157 | 39141 ft | 496 kts | 48° |
| 2026-05-07 18:29 | 58.12742 | 18.81993 | 39142 ft | 495 kts | 49° |
| 2026-05-07 18:29 | 58.17232 | 18.91791 | 39142 ft | 496 kts | 49° |
| 2026-05-07 18:30 | 58.21767 | 19.01731 | 39141 ft | 496 kts | 49° |
| 2026-05-07 18:30 | 58.26277 | 19.11657 | 39142 ft | 496 kts | 49° |
| 2026-05-07 18:31 | 58.30759 | 19.21564 | 39143 ft | 495 kts | 49° |
| 2026-05-07 18:31 | 58.35244 | 19.31519 | 39139 ft | 496 kts | 49° |
| 2026-05-07 18:32 | 58.39733 | 19.41525 | 39141 ft | 496 kts | 49° |
| 2026-05-07 18:32 | 58.44209 | 19.51546 | 39141 ft | 497 kts | 49° |
| 2026-05-07 18:33 | 58.48689 | 19.61619 | 39139 ft | 498 kts | 49° |
| 2026-05-07 18:33 | 58.53137 | 19.71665 | 39137 ft | 497 kts | 49° |
| 2026-05-07 18:34 | 58.57596 | 19.81776 | 39139 ft | 497 kts | 50° |
| 2026-05-07 18:34 | 58.62082 | 19.91995 | 39143 ft | 498 kts | 50° |
| 2026-05-07 18:35 | 58.66534 | 20.02181 | 39134 ft | 497 kts | 50° |
| 2026-05-07 18:35 | 58.70976 | 20.12388 | 39138 ft | 499 kts | 50° |
| 2026-05-07 18:36 | 58.75398 | 20.22593 | 39146 ft | 500 kts | 50° |
| 2026-05-07 18:36 | 58.79836 | 20.32880 | 39151 ft | 500 kts | 50° |
| 2026-05-07 18:37 | 58.84270 | 20.43199 | 39145 ft | 498 kts | 50° |
| 2026-05-07 18:37 | 58.88735 | 20.53461 | 39144 ft | 499 kts | 50° |
| 2026-05-07 18:38 | 58.93173 | 20.63921 | 39151 ft | 499 kts | 50° |
| 2026-05-07 18:38 | 58.97534 | 20.74282 | 39152 ft | 499 kts | 51° |
| 2026-05-07 18:39 | 59.01920 | 20.84729 | 39148 ft | 499 kts | 50° |
| 2026-05-07 18:39 | 59.06081 | 20.95511 | 39146 ft | 499 kts | 58° |
| 2026-05-07 18:40 | 59.08952 | 21.04833 | 39139 ft | 498 kts | 60° |
| 2026-05-07 18:40 | 59.11858 | 21.14698 | 39133 ft | 498 kts | 60° |
| 2026-05-07 18:41 | 59.15293 | 21.26451 | 39129 ft | 499 kts | 60° |
| 2026-05-07 18:41 | 59.18708 | 21.38212 | 39126 ft | 498 kts | 61° |
| 2026-05-07 18:42 | 59.22110 | 21.49993 | 39124 ft | 498 kts | 61° |
| 2026-05-07 18:42 | 59.25564 | 21.61715 | 39124 ft | 498 kts | 60° |
| 2026-05-07 18:43 | 59.29031 | 21.73483 | 39126 ft | 498 kts | 60° |
| 2026-05-07 18:43 | 59.32448 | 21.85272 | 39122 ft | 498 kts | 61° |
| 2026-05-07 18:44 | 59.35847 | 21.97105 | 39119 ft | 498 kts | 61° |
| 2026-05-07 18:44 | 59.39232 | 22.08968 | 39116 ft | 498 kts | 61° |
| 2026-05-07 18:45 | 59.42605 | 22.20854 | 39118 ft | 498 kts | 61° |
| 2026-05-07 18:45 | 59.45945 | 22.32691 | 39119 ft | 498 kts | 61° |
| 2026-05-07 18:46 | 59.49297 | 22.44633 | 39118 ft | 498 kts | 61° |
| 2026-05-07 18:46 | 59.52632 | 22.56574 | 39113 ft | 497 kts | 61° |
| 2026-05-07 18:46 | 59.54298 | 22.62562 | 38965 ft | 499 kts | 61° |
| 2026-05-07 18:47 | 59.55959 | 22.68552 | 38714 ft | 497 kts | 61° |
| 2026-05-07 18:47 | 59.57614 | 22.74534 | 38279 ft | 495 kts | 61° |
| 2026-05-07 18:47 | 59.59255 | 22.80480 | 37829 ft | 491 kts | 61° |
| 2026-05-07 18:47 | 59.60884 | 22.86397 | 37378 ft | 491 kts | 61° |
| 2026-05-07 18:48 | 59.62514 | 22.92335 | 36929 ft | 493 kts | 61° |
| 2026-05-07 18:48 | 59.64148 | 22.98300 | 36439 ft | 495 kts | 61° |
| 2026-05-07 18:48 | 59.65787 | 23.04300 | 35939 ft | 496 kts | 61° |
| 2026-05-07 18:48 | 59.67372 | 23.10121 | 35409 ft | 498 kts | 62° |
| 2026-05-07 18:49 | 59.69010 | 23.16150 | 34860 ft | 499 kts | 62° |
| 2026-05-07 18:49 | 59.70652 | 23.22210 | 34310 ft | 500 kts | 62° |
| 2026-05-07 18:49 | 59.72285 | 23.28251 | 33763 ft | 501 kts | 62° |
| 2026-05-07 18:49 | 59.73930 | 23.34353 | 33208 ft | 495 kts | 62° |
| 2026-05-07 18:50 | 59.75541 | 23.40349 | 32657 ft | 492 kts | 62° |
| 2026-05-07 18:50 | 59.77148 | 23.46340 | 32108 ft | 493 kts | 62° |
| 2026-05-07 18:50 | 59.78758 | 23.52361 | 31556 ft | 494 kts | 62° |
| 2026-05-07 18:50 | 59.80371 | 23.58410 | 31006 ft | 496 kts | 62° |
| 2026-05-07 18:51 | 59.82044 | 23.64433 | 30452 ft | 498 kts | 59° |
| 2026-05-07 18:51 | 59.83862 | 23.70293 | 29829 ft | 499 kts | 57° |
| 2026-05-07 18:51 | 59.85711 | 23.76129 | 29205 ft | 501 kts | 57° |
| 2026-05-07 18:51 | 59.87558 | 23.81991 | 28527 ft | 497 kts | 57° |
| 2026-05-07 18:52 | 59.89380 | 23.87804 | 27850 ft | 491 kts | 57° |
| 2026-05-07 18:52 | 59.91173 | 23.93542 | 27174 ft | 486 kts | 57° |
| 2026-05-07 18:52 | 59.92949 | 23.99240 | 26497 ft | 481 kts | 58° |
| 2026-05-07 18:52 | 59.94709 | 24.04904 | 25819 ft | 477 kts | 58° |
| 2026-05-07 18:53 | 59.96449 | 24.10514 | 25132 ft | 474 kts | 58° |
| 2026-05-07 18:53 | 59.98173 | 24.16083 | 24431 ft | 470 kts | 58° |
| 2026-05-07 18:53 | 59.99883 | 24.21613 | 23729 ft | 464 kts | 58° |
| 2026-05-07 18:53 | 60.01607 | 24.27017 | 23029 ft | 460 kts | 57° |
| 2026-05-07 18:54 | 60.03316 | 24.32398 | 22325 ft | 456 kts | 57° |
| 2026-05-07 18:54 | 60.04970 | 24.37677 | 21591 ft | 451 kts | 58° |
| 2026-05-07 18:54 | 60.06632 | 24.43030 | 20830 ft | 443 kts | 58° |
| 2026-05-07 18:54 | 60.08240 | 24.48236 | 20078 ft | 434 kts | 58° |
| 2026-05-07 18:55 | 60.09804 | 24.53304 | 19327 ft | 422 kts | 57° |
| 2026-05-07 18:55 | 60.10508 | 24.55531 | 18988 ft | 417 kts | 57° |
| 2026-05-07 18:55 | 60.11976 | 24.60177 | 18265 ft | 403 kts | 57° |
| 2026-05-07 18:55 | 60.13295 | 24.64450 | 17582 ft | 390 kts | 57° |
| 2026-05-07 18:56 | 60.14683 | 24.69006 | 16832 ft | 377 kts | 58° |
| 2026-05-07 18:56 | 60.16044 | 24.73500 | 16070 ft | 366 kts | 58° |
| 2026-05-07 18:56 | 60.17344 | 24.77809 | 15320 ft | 356 kts | 58° |
| 2026-05-07 18:56 | 60.18592 | 24.81951 | 14557 ft | 348 kts | 58° |
| 2026-05-07 18:57 | 60.19835 | 24.86088 | 13752 ft | 340 kts | 58° |
| 2026-05-07 18:57 | 60.21044 | 24.90111 | 12953 ft | 334 kts | 58° |
| 2026-05-07 18:57 | 60.22230 | 24.94065 | 12155 ft | 327 kts | 58° |
| 2026-05-07 18:57 | 60.23385 | 24.97911 | 11717 ft | 309 kts | 57° |
| 2026-05-07 18:58 | 60.24470 | 25.01521 | 11176 ft | 297 kts | 57° |
| 2026-05-07 18:58 | 60.25581 | 25.04972 | 10543 ft | 289 kts | 49° |
| 2026-05-07 18:58 | 60.27087 | 25.07462 | 10016 ft | 273 kts | 26° |
| 2026-05-07 18:58 | 60.28789 | 25.08965 | 9516 ft | 262 kts | 17° |
| 2026-05-07 18:59 | 60.30469 | 25.10155 | 9004 ft | 249 kts | 12° |
| 2026-05-07 18:59 | 60.32132 | 25.11063 | 8455 ft | 250 kts | 9° |
| 2026-05-07 18:59 | 60.33838 | 25.11883 | 7941 ft | 250 kts | 7° |
| 2026-05-07 18:59 | 60.35517 | 25.12035 | 7398 ft | 238 kts | 346° |
| 2026-05-07 19:00 | 60.37054 | 25.11022 | 6855 ft | 229 kts | 333° |
| 2026-05-07 19:00 | 60.38464 | 25.09789 | 6332 ft | 227 kts | 335° |
| 2026-05-07 19:00 | 60.39859 | 25.09334 | 6025 ft | 223 kts | 0° |
| 2026-05-07 19:00 | 60.41326 | 25.10181 | 5767 ft | 214 kts | 17° |
| 2026-05-07 19:01 | 60.42714 | 25.11305 | 5512 ft | 210 kts | 17° |
| 2026-05-07 19:01 | 60.44042 | 25.12381 | 5263 ft | 206 kts | 18° |
| 2026-05-07 19:01 | 60.45380 | 25.13456 | 5036 ft | 203 kts | 18° |
| 2026-05-07 19:01 | 60.46686 | 25.14502 | 4985 ft | 200 kts | 18° |
| 2026-05-07 19:02 | 60.47990 | 25.15537 | 4984 ft | 203 kts | 18° |
| 2026-05-07 19:02 | 60.49311 | 25.16577 | 4990 ft | 205 kts | 18° |
| 2026-05-07 19:02 | 60.50680 | 25.17494 | 4890 ft | 208 kts | 6° |
| 2026-05-07 19:02 | 60.52058 | 25.17077 | 4702 ft | 204 kts | 331° |
| 2026-05-07 19:03 | 60.53037 | 25.15070 | 4520 ft | 205 kts | 296° |
| 2026-05-07 19:03 | 60.53230 | 25.12212 | 4285 ft | 212 kts | 262° |
| 2026-05-07 19:03 | 60.52709 | 25.09330 | 4048 ft | 218 kts | 248° |
| 2026-05-07 19:03 | 60.52081 | 25.06520 | 3809 ft | 217 kts | 248° |
| 2026-05-07 19:04 | 60.51501 | 25.03765 | 3611 ft | 214 kts | 248° |
| 2026-05-07 19:04 | 60.50914 | 25.00948 | 3406 ft | 212 kts | 248° |
| 2026-05-07 19:04 | 60.50343 | 24.98190 | 3206 ft | 212 kts | 248° |
| 2026-05-07 19:04 | 60.49773 | 24.95431 | 3005 ft | 213 kts | 248° |
| 2026-05-07 19:05 | 60.49195 | 24.92687 | 2807 ft | 215 kts | 248° |
| 2026-05-07 19:05 | 60.48612 | 24.89900 | 2607 ft | 214 kts | 248° |
| 2026-05-07 19:05 | 60.47841 | 24.87309 | 2389 ft | 214 kts | 226° |
| 2026-05-07 19:05 | 60.46535 | 24.85974 | 2175 ft | 212 kts | 191° |
| 2026-05-07 19:06 | 60.45198 | 24.85869 | 2020 ft | 212 kts | 179° |
| 2026-05-07 19:06 | 60.42320 | 24.86987 | 1987 ft | 207 kts | 157° |
| 2026-05-07 19:06 | 60.41012 | 24.88221 | 1910 ft | 207 kts | 152° |
| 2026-05-07 19:07 | 60.39753 | 24.89541 | 1651 ft | 202 kts | 152° |
| 2026-05-07 19:07 | 60.38530 | 24.90806 | 1396 ft | 191 kts | 152° |
| 2026-05-07 19:07 | 60.37371 | 24.91998 | 1143 ft | 184 kts | 152° |
| 2026-05-07 19:07 | 60.36236 | 24.93163 | 896 ft | 179 kts | 152° |
| 2026-05-07 19:08 | 60.35164 | 24.94264 | 673 ft | 167 kts | 152° |
| 2026-05-07 19:08 | 60.34180 | 24.95272 | 439 ft | 150 kts | 154° |
| 2026-05-07 19:08 | 60.33311 | 24.96171 | 291 ft | 132 kts | 156° |
| 2026-05-07 19:08 | 60.32517 | 24.96983 | 188 ft | 121 kts | 154° |
| 2026-05-07 19:09 | 60.31880 | 24.97624 | 188 ft | 87 kts | 153° |
| 2026-05-07 19:09 | 60.31397 | 24.98120 | 188 ft | 72 kts | 152° |
| 2026-05-07 19:09 | 60.31082 | 24.98435 | 187 ft | 25 kts | 167° |
| 2026-05-07 19:09 | 60.30975 | 24.98319 | 187 ft | 13 kts | 243° |
| 2026-05-07 19:10 | 60.30942 | 24.98191 | 187 ft | 4 kts | 242° |
| 2026-05-07 19:10 | 60.30930 | 24.98145 | 187 ft | 0 kts | 242° |
| 2026-05-07 19:10 | 60.30928 | 24.98137 | 187 ft | 4 kts | 242° |
| 2026-05-07 19:10 | 60.30908 | 24.98081 | 187 ft | 4 kts | 194° |
| 2026-05-07 19:11 | 60.30885 | 24.98096 | 187 ft | 3 kts | 160° |
| 2026-05-07 19:11 | 60.30864 | 24.98091 | 187 ft | 3 kts | 233° |
| 2026-05-07 19:11 | 60.30837 | 24.97998 | 187 ft | 3 kts | 208° |
| 2026-05-07 19:11 | 60.30836 | 24.97997 | 187 ft | 0 kts | 208° |